Time;durP1;ratioP1;P1;durP2;ratioP2;P2;SDS_P1;SDS_P2;PMS_P1;PMS_P2;Temp;Humidity;BMP_temperature;BMP_pressure;BME280_temperature;BME280_humidity;BME280_pressure;Samples;Min_cycle;Max_cycle;Signal;HPM_P1;HPM_P2
2023/07/31 00:00:17;;;;;;;;;;;;;;;;;;2076213;28;19924;-74
2023/07/31 00:01:38;;;;;;;;;;;;;;;;;;2077225;28;19923;-72
2023/07/31 00:02:59;;;;;;;;;;;;;;;;;;2076980;28;19913;-73
2023/07/31 00:04:20;;;;;;;;;;;;;;;;;;2074997;28;19936;-73
2023/07/31 00:05:40;;;;;;;;;;;;;;;;;;2077082;28;19996;-73
2023/07/31 00:07:04;;;;;;;;;;;;;;;;;;2077237;28;19917;-73
2023/07/31 00:08:24;;;;;;;;;;;;;;;;;;2076441;28;19951;-72
2023/07/31 00:09:45;;;;;;;;;;;;;;;;;;2074501;28;19910;-73
2023/07/31 00:11:06;;;;;;;;;;;;;;;;;;2084035;28;19921;-73
2023/07/31 00:12:26;;;;;;;;;;;;;;;;;;2081103;28;19909;-73
2023/07/31 00:13:47;;;;;;;;;;;;;;;;;;2079679;28;19917;-72
2023/07/31 00:15:08;;;;;;;;;;;;;;;;;;2075378;28;19924;-72
2023/07/31 00:16:29;;;;;;;;;;;;;;;;;;2076239;28;19921;-73
2023/07/31 00:17:49;;;;;;;;;;;;;;;;;;2077813;28;19917;-73
2023/07/31 00:19:10;;;;;;;;;;;;;;;;;;2076846;28;19917;-73
2023/07/31 00:20:31;;;;;;;;;;;;;;;;;;2076721;28;19947;-72
2023/07/31 00:21:51;;;;;;;;;;;;;;;;;;2078965;28;19921;-72
2023/07/31 00:23:12;;;;;;;;;;;;;;;;;;2078680;28;19967;-72
2023/07/31 00:24:33;;;;;;;;;;;;;;;;;;2075421;28;19913;-73
2023/07/31 00:25:53;;;;;;;;;;;;;;;;;;2073497;28;20501;-73
2023/07/31 00:27:14;;;;;;;;;;;;;;;;;;2072610;28;19917;-73
2023/07/31 00:28:35;;;;;;;;;;;;;;;;;;2078163;28;19913;-73
2023/07/31 00:29:56;;;;;;;;;;;;;;;;;;2074207;28;19925;-72
2023/07/31 00:31:16;;;;;;;;;;;;;;;;;;2073378;28;19921;-76
2023/07/31 00:32:37;;;;;;;;;;;;;;;;;;2077226;28;19921;-75
2023/07/31 00:33:58;;;;;;;;;;;;;;;;;;2077529;28;19921;-75
2023/07/31 00:35:18;;;;;;;;;;;;;;;;;;2077883;28;19928;-75
2023/07/31 00:36:39;;;;;;;;;;;;;;;;;;2077402;28;19921;-76
2023/07/31 00:38:00;;;;;;;;;;;;;;;;;;2080991;28;19909;-74
2023/07/31 00:39:20;;;;;;;;;;;;;;;;;;2077367;28;19917;-75
2023/07/31 00:40:41;;;;;;;;;;;;;;;;;;2077827;28;19960;-74
2023/07/31 00:42:02;;;;;;;;;;;;;;;;;;2075373;28;19924;-75
2023/07/31 00:43:23;;;;;;;;;;;;;;;;;;2086183;28;20253;-75
2023/07/31 00:44:43;;;;;;;;;;;;;;;;;;2075433;28;19917;-75
2023/07/31 00:46:04;;;;;;;;;;;;;;;;;;2076016;28;19921;-75
2023/07/31 00:47:25;;;;;;;;;;;;;;;;;;2077396;28;19990;-74
2023/07/31 00:48:46;;;;;;;;;;;;;;;;;;2076313;28;20400;-74
2023/07/31 00:50:06;;;;;;;;;;;;;;;;;;2076965;28;19945;-75
2023/07/31 00:51:27;;;;;;;;;;;;;;;;;;2077720;28;19971;-75
2023/07/31 00:52:48;;;;;;;;;;;;;;;;;;2075138;28;19921;-74
2023/07/31 00:54:08;;;;;;;;;;;;;;;;;;2076978;28;19917;-75
2023/07/31 00:55:29;;;;;;;;;;;;;;;;;;2079404;28;20301;-75
2023/07/31 00:56:50;;;;;;;;;;;;;;;;;;2076197;28;20423;-74
2023/07/31 00:58:11;;;;;;;;;;;;;;;;;;2075163;28;19936;-74
2023/07/31 00:59:32;;;;;;;;;;;;;;;;;;2077234;28;19959;-75
2023/07/31 01:00:53;;;;;;;;;;;;;;;;;;2076689;28;19921;-74
2023/07/31 01:02:13;;;;;;;;;;;;;;;;;;2076106;28;19914;-75
2023/07/31 01:03:34;;;;;;;;;;;;;;;;;;2076214;28;20369;-75
2023/07/31 01:04:55;;;;;;;;;;;;;;;;;;2074603;28;19914;-74
2023/07/31 01:06:16;;;;;;;;;;;;;;;;;;2077259;28;19928;-75
2023/07/31 01:07:37;;;;;;;;;;;;;;;;;;2076145;28;19913;-75
2023/07/31 01:08:57;;;;;;;;;;;;;;;;;;2076454;28;19920;-75
2023/07/31 01:10:18;;;;;;;;;;;;;;;;;;2078505;28;19917;-75
2023/07/31 01:11:39;;;;;;;;;;;;;;;;;;2078178;28;19913;-74
2023/07/31 01:12:59;;;;;;;;;;;;;;;;;;2077139;28;19925;-74
2023/07/31 01:14:20;;;;;;;;;;;;;;;;;;2077947;28;19913;-75
2023/07/31 01:15:41;;;;;;;;;;;;;;;;;;2077351;28;20418;-74
2023/07/31 01:17:01;;;;;;;;;;;;;;;;;;2071648;28;20032;-75
2023/07/31 01:18:22;;;;;;;;;;;;;;;;;;2080385;28;21745;-74
2023/07/31 01:19:43;;;;;;;;;;;;;;;;;;2078452;28;19917;-75
2023/07/31 01:21:04;;;;;;;;;;;;;;;;;;2078567;28;19913;-74
2023/07/31 01:22:24;;;;;;;;;;;;;;;;;;2077314;28;20388;-74
2023/07/31 01:23:45;;;;;;;;;;;;;;;;;;2075646;28;19925;-74
2023/07/31 01:25:06;;;;;;;;;;;;;;;;;;2079835;28;20365;-74
2023/07/31 01:26:27;;;;;;;;;;;;;;;;;;2079564;28;19921;-75
2023/07/31 01:27:48;;;;;;;;;;;;;;;;;;2076933;28;19968;-73
2023/07/31 01:29:08;;;;;;;;;;;;;;;;;;2079044;28;19933;-75
2023/07/31 01:30:29;;;;;;;;;;;;;;;;;;2080434;28;20300;-74
2023/07/31 01:31:50;;;;;;;;;;;;;;;;;;2079458;28;19952;-74
2023/07/31 01:33:10;;;;;;;;;;;;;;;;;;2078848;28;19913;-75
2023/07/31 01:34:31;;;;;;;;;;;;;;;;;;2077363;28;19917;-75
2023/07/31 01:35:52;;;;;;;;;;;;;;;;;;2079084;28;19983;-75
2023/07/31 01:37:13;;;;;;;;;;;;;;;;;;2079265;28;19925;-75
2023/07/31 01:38:33;;;;;;;;;;;;;;;;;;2078761;28;19913;-75
2023/07/31 01:39:54;;;;;;;;;;;;;;;;;;2082181;28;20381;-75
2023/07/31 01:41:15;;;;;;;;;;;;;;;;;;2077027;28;19920;-74
2023/07/31 01:42:35;;;;;;;;;;;;;;;;;;2080414;28;19917;-75
2023/07/31 01:43:56;;;;;;;;;;;;;;;;;;2081087;28;19917;-74
2023/07/31 01:45:17;;;;;;;;;;;;;;;;;;2082532;28;20360;-75
2023/07/31 01:46:37;;;;;;;;;;;;;;;;;;2078115;28;19925;-75
2023/07/31 01:47:58;;;;;;;;;;;;;;;;;;2080365;28;20261;-74
2023/07/31 01:49:19;;;;;;;;;;;;;;;;;;2079415;28;20276;-74
2023/07/31 01:50:40;;;;;;;;;;;;;;;;;;2081326;28;19917;-74
2023/07/31 01:52:00;;;;;;;;;;;;;;;;;;2077845;28;19928;-74
2023/07/31 01:53:21;;;;;;;;;;;;;;;;;;2078959;28;19913;-74
2023/07/31 01:54:42;;;;;;;;;;;;;;;;;;2079318;28;19913;-75
2023/07/31 01:56:02;;;;;;;;;;;;;;;;;;2079858;28;20301;-75
2023/07/31 01:57:23;;;;;;;;;;;;;;;;;;2077763;28;20541;-75
2023/07/31 01:58:44;;;;;;;;;;;;;;;;;;2078292;28;19929;-75
2023/07/31 02:00:05;;;;;;;;;;;;;;;;;;2075139;28;19913;-75
2023/07/31 02:01:26;;;;;;;;;;;;;;;;;;2076996;28;19925;-75
2023/07/31 02:02:46;;;;;;;;;;;;;;;;;;2080608;28;19967;-74
2023/07/31 02:04:07;;;;;;;;;;;;;;;;;;2074680;28;19921;-75
2023/07/31 02:05:28;;;;;;;;;;;;;;;;;;2078571;28;20084;-75
2023/07/31 02:06:48;;;;;;;;;;;;;;;;;;2080252;28;19944;-74
2023/07/31 02:08:09;;;;;;;;;;;;;;;;;;2077754;28;19967;-75
2023/07/31 02:09:30;;;;;;;;;;;;;;;;;;2080144;28;19913;-74
2023/07/31 02:10:51;;;;;;;;;;;;;;;;;;2078980;28;19917;-74
2023/07/31 02:12:11;;;;;;;;;;;;;;;;;;2078025;28;20276;-74
2023/07/31 02:13:32;;;;;;;;;;;;;;;;;;2080081;28;20357;-74
2023/07/31 02:14:53;;;;;;;;;;;;;;;;;;2077576;28;20474;-74
2023/07/31 02:16:13;;;;;;;;;;;;;;;;;;2079327;28;19936;-74
2023/07/31 02:17:34;;;;;;;;;;;;;;;;;;2076391;28;20495;-74
2023/07/31 02:18:55;;;;;;;;;;;;;;;;;;2081170;28;19971;-74
2023/07/31 02:20:15;;;;;;;;;;;;;;;;;;2075113;28;19921;-74
2023/07/31 02:21:36;;;;;;;;;;;;;;;;;;2076881;28;20261;-74
2023/07/31 02:22:57;;;;;;;;;;;;;;;;;;2080407;28;19956;-74
2023/07/31 02:24:17;;;;;;;;;;;;;;;;;;2082556;28;20357;-74
2023/07/31 02:25:38;;;;;;;;;;;;;;;;;;2079833;28;19917;-74
2023/07/31 02:26:59;;;;;;;;;;;;;;;;;;2073995;28;19987;-74
2023/07/31 02:28:19;;;;;;;;;;;;;;;;;;2079529;28;20429;-74
2023/07/31 02:29:40;;;;;;;;;;;;;;;;;;2077545;28;19975;-75
2023/07/31 02:31:01;;;;;;;;;;;;;;;;;;2079211;28;20285;-74
2023/07/31 02:32:22;;;;;;;;;;;;;;;;;;2080728;28;19913;-74
2023/07/31 02:33:42;;;;;;;;;;;;;;;;;;2080741;28;19979;-75
2023/07/31 02:35:03;;;;;;;;;;;;;;;;;;2078329;28;20315;-75
2023/07/31 02:36:24;;;;;;;;;;;;;;;;;;2077887;28;19921;-74
2023/07/31 02:37:44;;;;;;;;;;;;;;;;;;2079813;28;19928;-74
2023/07/31 02:39:05;;;;;;;;;;;;;;;;;;2081569;28;20453;-74
2023/07/31 02:40:26;;;;;;;;;;;;;;;;;;2078278;28;19913;-74
2023/07/31 02:41:47;;;;;;;;;;;;;;;;;;2078038;28;19928;-75
2023/07/31 02:43:07;;;;;;;;;;;;;;;;;;2078360;28;19917;-74
2023/07/31 02:44:28;;;;;;;;;;;;;;;;;;2078924;28;19991;-74
2023/07/31 02:45:49;;;;;;;;;;;;;;;;;;2074102;28;19921;-74
2023/07/31 02:47:09;;;;;;;;;;;;;;;;;;2078522;28;19978;-75
2023/07/31 02:48:30;;;;;;;;;;;;;;;;;;2076773;28;19913;-74
2023/07/31 02:49:51;;;;;;;;;;;;;;;;;;2081005;28;19917;-74
2023/07/31 02:51:12;;;;;;;;;;;;;;;;;;2080033;28;20367;-74
2023/07/31 02:52:32;;;;;;;;;;;;;;;;;;2077123;28;19917;-74
2023/07/31 02:53:53;;;;;;;;;;;;;;;;;;2076172;28;20213;-74
2023/07/31 02:55:14;;;;;;;;;;;;;;;;;;2079524;28;19917;-75
2023/07/31 02:56:34;;;;;;;;;;;;;;;;;;2080488;28;20003;-74
2023/07/31 02:57:55;;;;;;;;;;;;;;;;;;2079885;28;20368;-74
2023/07/31 02:59:16;;;;;;;;;;;;;;;;;;2078012;28;19932;-74
2023/07/31 03:00:36;;;;;;;;;;;;;;;;;;2081105;28;20295;-74
2023/07/31 03:01:57;;;;;;;;;;;;;;;;;;2080394;28;19913;-75
2023/07/31 03:03:18;;;;;;;;;;;;;;;;;;2081195;28;19917;-75
2023/07/31 03:04:39;;;;;;;;;;;;;;;;;;2082016;28;19942;-75
2023/07/31 03:05:59;;;;;;;;;;;;;;;;;;2090321;28;20317;-74
2023/07/31 03:07:20;;;;;;;;;;;;;;;;;;2083677;28;19917;-75
2023/07/31 03:08:41;;;;;;;;;;;;;;;;;;2083787;28;19917;-74
2023/07/31 03:10:01;;;;;;;;;;;;;;;;;;2086809;28;19915;-75
2023/07/31 03:11:22;;;;;;;;;;;;;;;;;;2082071;28;19913;-74
2023/07/31 03:12:43;;;;;;;;;;;;;;;;;;2091022;28;20328;-75
2023/07/31 03:14:04;;;;;;;;;;;;;;;;;;2076245;28;19966;-75
2023/07/31 03:15:24;;;;;;;;;;;;;;;;;;2080936;28;19909;-74
2023/07/31 03:16:45;;;;;;;;;;;;;;;;;;2081287;28;19913;-76
2023/07/31 03:18:06;;;;;;;;;;;;;;;;;;2082257;28;19914;-75
2023/07/31 03:19:26;;;;;;;;;;;;;;;;;;2080586;28;20360;-75
2023/07/31 03:20:47;;;;;;;;;;;;;;;;;;2081407;28;19917;-75
2023/07/31 03:22:08;;;;;;;;;;;;;;;;;;2081447;28;19921;-75
2023/07/31 03:23:28;;;;;;;;;;;;;;;;;;2076299;28;20305;-75
2023/07/31 03:24:49;;;;;;;;;;;;;;;;;;2076900;28;19971;-74
2023/07/31 03:26:10;;;;;;;;;;;;;;;;;;2081599;28;19909;-75
2023/07/31 03:27:31;;;;;;;;;;;;;;;;;;2072335;28;20337;-75
2023/07/31 03:28:52;;;;;;;;;;;;;;;;;;2073737;28;20308;-75
2023/07/31 03:30:12;;;;;;;;;;;;;;;;;;2079960;28;19959;-75
2023/07/31 03:31:33;;;;;;;;;;;;;;;;;;2074946;28;19913;-75
2023/07/31 03:32:54;;;;;;;;;;;;;;;;;;2073390;28;20373;-75
2023/07/31 03:34:14;;;;;;;;;;;;;;;;;;2073522;28;19917;-75
2023/07/31 03:35:35;;;;;;;;;;;;;;;;;;2077767;28;19983;-75
2023/07/31 03:36:56;;;;;;;;;;;;;;;;;;2073033;28;19913;-75
2023/07/31 03:38:16;;;;;;;;;;;;;;;;;;2073559;28;19959;-75
2023/07/31 03:39:37;;;;;;;;;;;;;;;;;;2074913;28;20415;-75
2023/07/31 03:40:58;;;;;;;;;;;;;;;;;;2071732;28;19921;-76
2023/07/31 03:42:19;;;;;;;;;;;;;;;;;;2073963;28;20015;-75
2023/07/31 03:43:40;;;;;;;;;;;;;;;;;;2073905;28;19972;-75
2023/07/31 03:45:00;;;;;;;;;;;;;;;;;;2072204;28;19917;-75
2023/07/31 03:46:21;;;;;;;;;;;;;;;;;;2071458;28;19964;-75
2023/07/31 03:47:42;;;;;;;;;;;;;;;;;;2070867;28;19939;-75
2023/07/31 03:49:03;;;;;;;;;;;;;;;;;;2076021;28;19913;-75
2023/07/31 03:50:25;;;;;;;;;;;;;;;;;;2077841;28;19956;-75
2023/07/31 03:51:45;;;;;;;;;;;;;;;;;;2076563;28;21244;-74
2023/07/31 03:53:06;;;;;;;;;;;;;;;;;;2074499;28;19914;-76
2023/07/31 03:54:27;;;;;;;;;;;;;;;;;;2073812;28;19971;-74
2023/07/31 03:55:47;;;;;;;;;;;;;;;;;;2070843;28;20365;-75
2023/07/31 03:57:08;;;;;;;;;;;;;;;;;;2076733;28;19928;-75
2023/07/31 03:58:29;;;;;;;;;;;;;;;;;;2076938;28;19921;-75
2023/07/31 03:59:49;;;;;;;;;;;;;;;;;;2079059;28;20003;-75
2023/07/31 04:01:10;;;;;;;;;;;;;;;;;;2077489;28;19918;-75
2023/07/31 04:02:31;;;;;;;;;;;;;;;;;;2079699;28;20396;-75
2023/07/31 04:03:51;;;;;;;;;;;;;;;;;;2079559;28;19999;-74
2023/07/31 04:05:12;;;;;;;;;;;;;;;;;;2077939;28;19924;-75
2023/07/31 04:06:33;;;;;;;;;;;;;;;;;;2077820;28;19917;-75
2023/07/31 04:07:53;;;;;;;;;;;;;;;;;;2078047;28;19975;-74
2023/07/31 04:09:14;;;;;;;;;;;;;;;;;;2076526;28;20301;-74
2023/07/31 04:10:35;;;;;;;;;;;;;;;;;;2081920;28;20206;-75
2023/07/31 04:11:56;;;;;;;;;;;;;;;;;;2078064;28;19913;-74
2023/07/31 04:13:16;;;;;;;;;;;;;;;;;;2079514;28;20011;-74
2023/07/31 04:14:37;;;;;;;;;;;;;;;;;;2077146;28;20387;-74
2023/07/31 04:15:58;;;;;;;;;;;;;;;;;;2079813;28;19913;-75
2023/07/31 04:17:18;;;;;;;;;;;;;;;;;;2076401;28;19925;-75
2023/07/31 04:18:39;;;;;;;;;;;;;;;;;;2077080;28;19917;-74
2023/07/31 04:20:00;;;;;;;;;;;;;;;;;;2079054;28;19975;-74
2023/07/31 04:21:20;;;;;;;;;;;;;;;;;;2076878;28;20281;-75
2023/07/31 04:22:41;;;;;;;;;;;;;;;;;;2078475;28;19918;-74
2023/07/31 04:24:02;;;;;;;;;;;;;;;;;;2078880;28;19913;-74
2023/07/31 04:25:23;;;;;;;;;;;;;;;;;;2078472;28;19921;-74
2023/07/31 04:26:43;;;;;;;;;;;;;;;;;;2073878;28;19921;-74
2023/07/31 04:28:04;;;;;;;;;;;;;;;;;;2074347;28;19929;-76
2023/07/31 04:29:25;;;;;;;;;;;;;;;;;;2078192;28;20623;-74
2023/07/31 04:30:45;;;;;;;;;;;;;;;;;;2080160;28;19913;-74
2023/07/31 04:32:06;;;;;;;;;;;;;;;;;;2077274;28;19913;-75
2023/07/31 04:33:27;;;;;;;;;;;;;;;;;;2078372;28;19909;-74
2023/07/31 04:34:48;;;;;;;;;;;;;;;;;;2077760;28;20011;-74
2023/07/31 04:36:08;;;;;;;;;;;;;;;;;;2074646;28;19917;-75
2023/07/31 04:37:29;;;;;;;;;;;;;;;;;;2079867;28;19917;-75
2023/07/31 04:38:50;;;;;;;;;;;;;;;;;;2075210;28;20124;-75
2023/07/31 04:40:10;;;;;;;;;;;;;;;;;;2074943;28;19971;-76
2023/07/31 04:41:31;;;;;;;;;;;;;;;;;;2078232;28;19913;-74
2023/07/31 04:42:52;;;;;;;;;;;;;;;;;;2076121;28;19909;-75
2023/07/31 04:44:13;;;;;;;;;;;;;;;;;;2077491;28;19920;-75
2023/07/31 04:45:33;;;;;;;;;;;;;;;;;;2077820;28;20442;-75
2023/07/31 04:46:54;;;;;;;;;;;;;;;;;;2077478;28;19914;-74
2023/07/31 04:48:15;;;;;;;;;;;;;;;;;;2077076;28;19928;-76
2023/07/31 04:49:35;;;;;;;;;;;;;;;;;;2075946;28;20214;-75
2023/07/31 04:50:56;;;;;;;;;;;;;;;;;;2077306;28;19917;-76
2023/07/31 04:52:17;;;;;;;;;;;;;;;;;;2079898;28;20011;-75
2023/07/31 04:53:38;;;;;;;;;;;;;;;;;;2077198;28;19920;-75
2023/07/31 04:54:58;;;;;;;;;;;;;;;;;;2076501;28;19916;-76
2023/07/31 04:56:19;;;;;;;;;;;;;;;;;;2078839;28;19987;-76
2023/07/31 04:57:40;;;;;;;;;;;;;;;;;;2082467;28;19959;-76
2023/07/31 04:59:00;;;;;;;;;;;;;;;;;;2074799;28;19913;-76
2023/07/31 05:00:21;;;;;;;;;;;;;;;;;;2074274;28;19921;-75
2023/07/31 05:01:42;;;;;;;;;;;;;;;;;;2075324;28;20055;-76
2023/07/31 05:03:03;;;;;;;;;;;;;;;;;;2074766;28;19975;-76
2023/07/31 05:04:24;;;;;;;;;;;;;;;;;;2077667;28;19944;-75
2023/07/31 05:05:44;;;;;;;;;;;;;;;;;;2082582;28;19950;-75
2023/07/31 05:07:05;;;;;;;;;;;;;;;;;;2078338;28;20361;-76
2023/07/31 05:08:26;;;;;;;;;;;;;;;;;;2072425;28;20351;-76
2023/07/31 05:09:47;;;;;;;;;;;;;;;;;;2073840;28;19921;-75
2023/07/31 05:11:07;;;;;;;;;;;;;;;;;;2074215;28;19979;-76
2023/07/31 05:12:28;;;;;;;;;;;;;;;;;;2076555;28;19913;-74
2023/07/31 05:13:49;;;;;;;;;;;;;;;;;;2076329;28;19921;-75
2023/07/31 05:15:09;;;;;;;;;;;;;;;;;;2077364;28;20620;-75
2023/07/31 05:16:30;;;;;;;;;;;;;;;;;;2075908;28;20327;-77
2023/07/31 05:17:51;;;;;;;;;;;;;;;;;;2074691;28;19925;-76
2023/07/31 05:19:12;;;;;;;;;;;;;;;;;;2074952;28;19924;-76
2023/07/31 05:20:32;;;;;;;;;;;;;;;;;;2076278;28;19979;-76
2023/07/31 05:21:53;;;;;;;;;;;;;;;;;;2073869;28;19921;-76
2023/07/31 05:23:14;;;;;;;;;;;;;;;;;;2081682;28;19909;-77
2023/07/31 05:24:35;;;;;;;;;;;;;;;;;;2079153;28;20438;-77
2023/07/31 05:25:55;;;;;;;;;;;;;;;;;;2077672;28;19914;-77
2023/07/31 05:27:18;;;;;;;;;;;;;;;;;;2081274;28;19920;-77
2023/07/31 05:28:39;;;;;;;;;;;;;;;;;;2080751;28;20141;-77
2023/07/31 05:29:59;;;;;;;;;;;;;;;;;;2080189;28;20322;-76
2023/07/31 05:31:22;;;;;;;;;;;;;;;;;;2074903;28;19918;-77
2023/07/31 05:32:42;;;;;;;;;;;;;;;;;;2084683;28;20364;-77
2023/07/31 05:34:03;;;;;;;;;;;;;;;;;;2075818;28;19920;-76
2023/07/31 05:35:24;;;;;;;;;;;;;;;;;;2076521;28;20376;-77
2023/07/31 05:36:45;;;;;;;;;;;;;;;;;;2077223;28;19913;-77
2023/07/31 05:38:05;;;;;;;;;;;;;;;;;;2076699;28;19917;-77
2023/07/31 05:39:26;;;;;;;;;;;;;;;;;;2079060;28;19917;-77
2023/07/31 05:40:47;;;;;;;;;;;;;;;;;;2078933;28;20300;-77
2023/07/31 05:42:07;;;;;;;;;;;;;;;;;;2076480;28;20047;-77
2023/07/31 05:43:28;;;;;;;;;;;;;;;;;;2075531;28;21245;-76
2023/07/31 05:44:49;;;;;;;;;;;;;;;;;;2074779;28;20428;-76
2023/07/31 05:46:11;;;;;;;;;;;;;;;;;;2074598;28;19917;-77
2023/07/31 05:47:32;;;;;;;;;;;;;;;;;;2077325;28;19913;-77
2023/07/31 05:48:53;;;;;;;;;;;;;;;;;;2081514;28;19921;-77
2023/07/31 05:50:14;;;;;;;;;;;;;;;;;;2078435;28;20002;-77
2023/07/31 05:51:34;;;;;;;;;;;;;;;;;;2075059;28;20352;-77
2023/07/31 05:52:55;;;;;;;;;;;;;;;;;;2077752;28;20007;-77
2023/07/31 05:54:16;;;;;;;;;;;;;;;;;;2078372;28;19917;-77
2023/07/31 05:55:37;;;;;;;;;;;;;;;;;;2078433;28;19917;-77
2023/07/31 05:56:57;;;;;;;;;;;;;;;;;;2075743;28;19913;-78
2023/07/31 05:58:18;;;;;;;;;;;;;;;;;;2078317;28;20379;-77
2023/07/31 05:59:39;;;;;;;;;;;;;;;;;;2080287;28;19932;-78
2023/07/31 06:00:59;;;;;;;;;;;;;;;;;;2077683;28;20514;-77
2023/07/31 06:02:20;;;;;;;;;;;;;;;;;;2078151;28;19913;-78
2023/07/31 06:03:41;;;;;;;;;;;;;;;;;;2077914;28;19983;-78
2023/07/31 06:05:02;;;;;;;;;;;;;;;;;;2077441;28;19913;-78
2023/07/31 06:06:23;;;;;;;;;;;;;;;;;;2076917;28;19913;-77
2023/07/31 06:07:43;;;;;;;;;;;;;;;;;;2082422;28;20288;-77
2023/07/31 06:09:04;;;;;;;;;;;;;;;;;;2077114;28;19964;-77
2023/07/31 06:10:25;;;;;;;;;;;;;;;;;;2076319;28;19913;-77
2023/07/31 06:11:46;;;;;;;;;;;;;;;;;;2075763;28;20103;-77
2023/07/31 06:13:07;;;;;;;;;;;;;;;;;;2082503;28;19928;-77
2023/07/31 06:14:27;;;;;;;;;;;;;;;;;;2077681;28;19975;-77
2023/07/31 06:15:48;;;;;;;;;;;;;;;;;;2077250;28;19917;-77
2023/07/31 06:17:09;;;;;;;;;;;;;;;;;;2076770;28;19913;-77
2023/07/31 06:18:29;;;;;;;;;;;;;;;;;;2077479;28;20217;-77
2023/07/31 06:19:50;;;;;;;;;;;;;;;;;;2075783;28;20690;-76
2023/07/31 06:21:11;;;;;;;;;;;;;;;;;;2073159;28;20330;-76
2023/07/31 06:22:31;;;;;;;;;;;;;;;;;;2073803;28;20369;-77
2023/07/31 06:23:52;;;;;;;;;;;;;;;;;;2075059;28;19990;-77
2023/07/31 06:25:13;;;;;;;;;;;;;;;;;;2078899;28;19913;-76
2023/07/31 06:26:34;;;;;;;;;;;;;;;;;;2075634;28;19921;-76
2023/07/31 06:27:54;;;;;;;;;;;;;;;;;;2075535;28;19913;-76
2023/07/31 06:29:15;;;;;;;;;;;;;;;;;;2072263;28;19918;-76
2023/07/31 06:30:36;;;;;;;;;;;;;;;;;;2075095;28;19967;-76
2023/07/31 06:31:57;;;;;;;;;;;;;;;;;;2072770;28;20315;-76
2023/07/31 06:33:17;;;;;;;;;;;;;;;;;;2080422;28;19917;-76
2023/07/31 06:34:38;;;;;;;;;;;;;;;;;;2081373;28;20326;-76
2023/07/31 06:35:59;;;;;;;;;;;;;;;;;;2077990;28;20397;-76
2023/07/31 06:37:19;;;;;;;;;;;;;;;;;;2079575;28;19917;-76
2023/07/31 06:38:40;;;;;;;;;;;;;;;;;;2080207;28;20340;-76
2023/07/31 06:40:01;;;;;;;;;;;;;;;;;;2081263;28;19977;-76
2023/07/31 06:41:21;;;;;;;;;;;;;;;;;;2078899;28;19910;-76
2023/07/31 06:42:42;;;;;;;;;;;;;;;;;;2078459;28;19924;-76
2023/07/31 06:44:03;;;;;;;;;;;;;;;;;;2078795;28;19921;-76
2023/07/31 06:45:23;;;;;;;;;;;;;;;;;;2077775;28;19913;-76
2023/07/31 06:46:44;;;;;;;;;;;;;;;;;;2073861;28;20430;-76
2023/07/31 06:48:05;;;;;;;;;;;;;;;;;;2071694;28;19988;-76
2023/07/31 06:49:26;;;;;;;;;;;;;;;;;;2065669;28;19913;-76
2023/07/31 06:50:46;;;;;;;;;;;;;;;;;;2081166;28;19924;-76
2023/07/31 06:52:07;;;;;;;;;;;;;;;;;;2078421;28;20020;-76
2023/07/31 06:53:28;;;;;;;;;;;;;;;;;;2074487;28;19963;-76
2023/07/31 06:54:48;;;;;;;;;;;;;;;;;;2082557;28;20443;-76
2023/07/31 06:56:09;;;;;;;;;;;;;;;;;;2081836;28;19963;-76
2023/07/31 06:57:30;;;;;;;;;;;;;;;;;;2081238;28;19979;-76
2023/07/31 06:58:51;;;;;;;;;;;;;;;;;;2084939;28;19924;-76
2023/07/31 07:00:11;;;;;;;;;;;;;;;;;;2089517;28;19971;-76
2023/07/31 07:01:32;;;;;;;;;;;;;;;;;;2079835;28;19917;-76
2023/07/31 07:02:53;;;;;;;;;;;;;;;;;;2072907;28;19938;-76
2023/07/31 07:04:13;;;;;;;;;;;;;;;;;;2081647;28;19913;-76
2023/07/31 07:05:34;;;;;;;;;;;;;;;;;;2087130;28;19913;-76
2023/07/31 07:06:55;;;;;;;;;;;;;;;;;;2087633;28;19917;-76
2023/07/31 07:08:16;;;;;;;;;;;;;;;;;;2077459;28;20697;-76
2023/07/31 07:09:37;;;;;;;;;;;;;;;;;;2089154;28;20018;-76
2023/07/31 07:10:58;;;;;;;;;;;;;;;;;;2077749;28;20594;-76
2023/07/31 07:12:18;;;;;;;;;;;;;;;;;;2074793;28;19983;-76
2023/07/31 07:13:39;;;;;;;;;;;;;;;;;;2078655;28;19995;-75
2023/07/31 07:15:00;;;;;;;;;;;;;;;;;;2083116;28;19917;-76
2023/07/31 07:16:20;;;;;;;;;;;;;;;;;;2086968;28;20383;-76
2023/07/31 07:17:41;;;;;;;;;;;;;;;;;;2086040;28;19932;-76
2023/07/31 07:19:02;;;;;;;;;;;;;;;;;;2086532;28;19921;-76
2023/07/31 07:20:23;;;;;;;;;;;;;;;;;;2077541;28;20339;-75
2023/07/31 07:21:44;;;;;;;;;;;;;;;;;;2079340;28;19955;-76
2023/07/31 07:23:05;;;;;;;;;;;;;;;;;;2084609;28;19912;-75
2023/07/31 07:24:25;;;;;;;;;;;;;;;;;;2081080;28;20316;-76
2023/07/31 07:25:46;;;;;;;;;;;;;;;;;;2075177;28;20024;-76
2023/07/31 07:27:07;;;;;;;;;;;;;;;;;;2085721;28;19919;-75
2023/07/31 07:28:28;;;;;;;;;;;;;;;;;;2083060;28;19921;-76
2023/07/31 07:29:49;;;;;;;;;;;;;;;;;;2089526;28;19974;-76
2023/07/31 07:31:09;;;;;;;;;;;;;;;;;;2079729;28;19913;-77
2023/07/31 07:32:30;;;;;;;;;;;;;;;;;;2080955;28;20308;-76
2023/07/31 07:33:51;;;;;;;;;;;;;;;;;;2081272;28;20292;-75
2023/07/31 07:35:12;;;;;;;;;;;;;;;;;;2078575;28;20373;-76
2023/07/31 07:36:33;;;;;;;;;;;;;;;;;;2079213;28;20526;-75
2023/07/31 07:37:53;;;;;;;;;;;;;;;;;;2086816;28;19909;-75
2023/07/31 07:39:15;;;;;;;;;;;;;;;;;;2077967;28;19967;-75
2023/07/31 07:40:35;;;;;;;;;;;;;;;;;;2079652;28;20422;-75
2023/07/31 07:41:56;;;;;;;;;;;;;;;;;;2072939;28;19909;-76
2023/07/31 07:43:17;;;;;;;;;;;;;;;;;;2084480;28;19921;-75
2023/07/31 07:44:37;;;;;;;;;;;;;;;;;;2087408;28;19908;-76
2023/07/31 07:45:58;;;;;;;;;;;;;;;;;;2073450;28;19913;-76
2023/07/31 07:47:19;;;;;;;;;;;;;;;;;;2078456;28;20448;-76
2023/07/31 07:48:40;;;;;;;;;;;;;;;;;;2076149;28;19936;-75
2023/07/31 07:50:00;;;;;;;;;;;;;;;;;;2085060;28;19917;-76
2023/07/31 07:51:21;;;;;;;;;;;;;;;;;;2097959;28;19913;-76
2023/07/31 07:52:42;;;;;;;;;;;;;;;;;;2081908;28;19909;-75
2023/07/31 07:54:02;;;;;;;;;;;;;;;;;;2087127;28;19909;-76
2023/07/31 07:55:23;;;;;;;;;;;;;;;;;;2088917;28;19917;-76
2023/07/31 07:56:44;;;;;;;;;;;;;;;;;;2080138;28;19929;-79
2023/07/31 07:58:05;;;;;;;;;;;;;;;;;;2076752;28;19913;-80
2023/07/31 07:59:25;;;;;;;;;;;;;;;;;;2078842;28;19916;-80
2023/07/31 08:00:46;;;;;;;;;;;;;;;;;;2077144;28;20403;-79
2023/07/31 08:02:07;;;;;;;;;;;;;;;;;;2077670;28;19913;-79
2023/07/31 08:03:27;;;;;;;;;;;;;;;;;;2080020;28;19913;-79
2023/07/31 08:04:48;;;;;;;;;;;;;;;;;;2088639;28;19917;-79
2023/07/31 08:06:09;;;;;;;;;;;;;;;;;;2089381;28;19912;-80
2023/07/31 08:07:30;;;;;;;;;;;;;;;;;;2080251;28;19917;-78
2023/07/31 08:08:50;;;;;;;;;;;;;;;;;;2080498;28;20368;-80
2023/07/31 08:10:11;;;;;;;;;;;;;;;;;;2088974;28;19909;-79
2023/07/31 08:11:32;;;;;;;;;;;;;;;;;;2093952;28;19908;-78
2023/07/31 08:12:52;;;;;;;;;;;;;;;;;;2082513;28;19909;-79
2023/07/31 08:14:13;;;;;;;;;;;;;;;;;;2081391;28;20292;-78
2023/07/31 08:15:34;;;;;;;;;;;;;;;;;;2087204;28;19908;-80
2023/07/31 08:16:55;;;;;;;;;;;;;;;;;;2089197;28;19909;-78
2023/07/31 08:18:17;;;;;;;;;;;;;;;;;;2086170;28;19928;-78
2023/07/31 08:19:37;;;;;;;;;;;;;;;;;;2080580;28;20375;-78
2023/07/31 08:20:58;;;;;;;;;;;;;;;;;;2080883;28;19921;-78
2023/07/31 08:22:19;;;;;;;;;;;;;;;;;;2078666;28;19913;-78
2023/07/31 08:23:40;;;;;;;;;;;;;;;;;;2084446;28;19986;-80
2023/07/31 08:25:00;;;;;;;;;;;;;;;;;;2084568;28;19921;-78
2023/07/31 08:26:21;;;;;;;;;;;;;;;;;;2077209;28;19948;-79
2023/07/31 08:27:42;;;;;;;;;;;;;;;;;;2072116;28;20985;-77
2023/07/31 08:29:03;;;;;;;;;;;;;;;;;;2082149;28;19920;-78
2023/07/31 08:30:23;;;;;;;;;;;;;;;;;;2079585;28;19913;-77
2023/07/31 08:31:44;;;;;;;;;;;;;;;;;;2081807;28;20338;-80
2023/07/31 08:33:05;;;;;;;;;;;;;;;;;;2085831;28;19967;-79
2023/07/31 08:34:26;;;;;;;;;;;;;;;;;;2085785;28;19917;-80
2023/07/31 08:35:47;;;;;;;;;;;;;;;;;;2076797;28;20300;-80
2023/07/31 08:37:08;;;;;;;;;;;;;;;;;;2074838;28;19921;-80
2023/07/31 08:38:29;;;;;;;;;;;;;;;;;;2082361;28;19913;-79
2023/07/31 08:39:50;;;;;;;;;;;;;;;;;;2079953;28;19928;-80
2023/07/31 08:41:12;;;;;;;;;;;;;;;;;;2078399;28;20568;-80
2023/07/31 08:42:33;;;;;;;;;;;;;;;;;;2077550;28;19960;-80
2023/07/31 08:43:54;;;;;;;;;;;;;;;;;;2088325;28;19909;-80
2023/07/31 08:45:15;;;;;;;;;;;;;;;;;;2077514;28;19913;-79
2023/07/31 08:46:36;;;;;;;;;;;;;;;;;;2080508;28;20491;-79
2023/07/31 08:47:59;;;;;;;;;;;;;;;;;;2078538;28;19917;-78
2023/07/31 08:49:20;;;;;;;;;;;;;;;;;;2076512;28;19937;-76
2023/07/31 08:50:41;;;;;;;;;;;;;;;;;;2076987;28;21470;-78
2023/07/31 08:52:01;;;;;;;;;;;;;;;;;;2073976;28;19913;-79
2023/07/31 08:53:22;;;;;;;;;;;;;;;;;;2077808;28;19920;-77
2023/07/31 08:54:43;;;;;;;;;;;;;;;;;;2081135;28;19913;-78
2023/07/31 08:56:03;;;;;;;;;;;;;;;;;;2079510;28;19917;-80
2023/07/31 08:57:24;;;;;;;;;;;;;;;;;;2074546;28;19917;-77
2023/07/31 08:58:45;;;;;;;;;;;;;;;;;;2076694;28;19921;-79
2023/07/31 09:00:06;;;;;;;;;;;;;;;;;;2078078;28;19925;-81
2023/07/31 09:01:26;;;;;;;;;;;;;;;;;;2075783;28;19921;-80
2023/07/31 09:02:47;;;;;;;;;;;;;;;;;;2078322;28;19921;-78
2023/07/31 09:04:08;;;;;;;;;;;;;;;;;;2078452;28;20423;-79
2023/07/31 09:05:28;;;;;;;;;;;;;;;;;;2078260;28;19917;-78
2023/07/31 09:06:49;;;;;;;;;;;;;;;;;;2087605;28;19943;-78
2023/07/31 09:08:10;;;;;;;;;;;;;;;;;;2076427;28;19914;-78
2023/07/31 09:09:31;;;;;;;;;;;;;;;;;;2084050;28;19921;-80
2023/07/31 09:10:52;;;;;;;;;;;;;;;;;;2081468;28;19909;-79